createdAt,value
2023-12-13T00:02:03.035Z,98788.56
2023-12-13T00:04:30.522Z,98788.47
2023-12-13T00:06:57.955Z,98778.88
2023-12-13T00:09:25.398Z,98789.09
2023-12-13T00:11:52.803Z,98783.56
2023-12-13T00:14:21.980Z,98771.63
2023-12-13T00:16:49.442Z,98776.06
2023-12-13T00:19:18.379Z,98770.53
2023-12-13T00:21:46.302Z,98778.53
2023-12-13T00:24:13.874Z,98772.81
2023-12-13T00:26:41.950Z,98760.66
2023-12-13T00:29:09.726Z,98761.72
2023-12-13T00:31:37.350Z,98755.72
2023-12-13T00:34:05.825Z,98754.53
2023-12-13T00:36:34.838Z,98754.03
2023-12-13T00:39:02.243Z,98752.34
2023-12-13T00:41:29.647Z,98747.31
2023-12-13T00:43:57.111Z,98746.94
2023-12-13T00:46:24.660Z,98735.31
2023-12-13T00:48:52.237Z,98732.47
2023-12-13T00:51:21.401Z,98735.47
2023-12-13T00:53:50.745Z,98727.34
2023-12-13T00:56:18.882Z,98727.75
2023-12-13T00:58:48.630Z,98726.47
2023-12-13T01:01:17.359Z,98728.81
2023-12-13T01:03:44.861Z,98724.09
2023-12-13T01:06:12.510Z,98713.53
2023-12-13T01:08:40.118Z,98727.56
2023-12-13T01:11:12.819Z,98725.78
2023-12-13T01:13:40.609Z,98733.00
2023-12-13T01:16:08.648Z,98742.06
2023-12-13T01:18:36.588Z,98737.81
2023-12-13T01:21:04.415Z,98740.28
2023-12-13T01:23:32.015Z,98747.63
2023-12-13T01:25:59.451Z,98740.38
2023-12-13T01:28:28.228Z,98744.63
2023-12-13T01:30:55.886Z,98743.81
2023-12-13T01:33:23.435Z,98745.72
2023-12-13T01:35:51.011Z,98740.38
2023-12-13T01:38:18.497Z,98742.72
2023-12-13T01:41:10.801Z,98746.22
2023-12-13T01:43:41.406Z,98733.63
2023-12-13T01:46:09.797Z,98731.66
2023-12-13T01:48:37.960Z,98727.19
2023-12-13T01:51:05.718Z,98735.59
2023-12-13T01:53:35.188Z,98727.88
2023-12-13T01:56:04.666Z,98741.69
2023-12-13T01:58:32.188Z,98738.25
2023-12-13T02:01:00.982Z,98737.25
2023-12-13T02:03:28.639Z,98735.63
2023-12-13T02:05:56.041Z,98723.91
2023-12-13T02:08:24.219Z,98720.25
2023-12-13T02:10:51.957Z,98722.97
2023-12-13T02:13:19.558Z,98712.06
2023-12-13T02:15:47.721Z,98715.50
2023-12-13T02:18:16.800Z,98709.13
2023-12-13T02:20:44.366Z,98704.09
2023-12-13T02:23:13.397Z,98702.63
2023-12-13T02:25:57.959Z,98701.47
2023-12-13T02:28:26.695Z,98695.47
2023-12-13T02:30:56.079Z,98699.34
2023-12-13T02:33:24.916Z,98686.97
2023-12-13T02:35:52.884Z,98686.25
2023-12-13T02:38:21.670Z,98689.91
2023-12-13T02:40:49.211Z,98683.31
2023-12-13T02:43:16.901Z,98693.50
2023-12-13T02:45:44.441Z,98683.88
2023-12-13T02:48:12.016Z,98682.00
2023-12-13T02:50:40.235Z,98680.25
2023-12-13T02:53:08.195Z,98682.72
2023-12-13T02:55:36.923Z,98686.16
2023-12-13T02:58:05.865Z,98678.50
2023-12-13T03:00:33.426Z,98678.91
2023-12-13T03:03:00.982Z,98685.78
2023-12-13T03:05:28.480Z,98676.94
2023-12-13T03:07:56.177Z,98682.00
2023-12-13T03:10:23.768Z,98683.97
2023-12-13T03:12:52.537Z,98683.00
2023-12-13T03:15:19.940Z,98676.50
2023-12-13T03:17:47.465Z,98666.81
2023-12-13T03:20:14.081Z,98666.31
2023-12-13T03:22:41.542Z,98673.59
2023-12-13T03:25:09.575Z,98667.59
2023-12-13T03:27:37.318Z,98658.66
2023-12-13T03:30:07.335Z,98658.56
2023-12-13T03:32:34.768Z,98668.41
2023-12-13T03:35:02.227Z,98654.72
2023-12-13T03:37:32.987Z,98642.78
2023-12-13T03:40:00.688Z,98651.56
2023-12-13T03:42:28.270Z,98648.44
2023-12-13T03:44:57.153Z,98648.94
2023-12-13T03:47:26.020Z,98657.16
2023-12-13T03:49:53.780Z,98648.47
2023-12-13T03:52:21.220Z,98646.81
2023-12-13T03:54:48.629Z,98649.72
2023-12-13T03:57:16.677Z,98635.84
2023-12-13T03:59:44.135Z,98637.66
2023-12-13T04:02:11.625Z,98637.84
2023-12-13T04:04:40.538Z,98633.97
2023-12-13T04:07:09.471Z,98641.50
2023-12-13T04:09:37.033Z,98648.16
2023-12-13T04:12:05.232Z,98642.00
2023-12-13T04:14:32.654Z,98639.53
2023-12-13T04:17:00.137Z,98646.47
2023-12-13T04:19:27.581Z,98646.16
2023-12-13T04:21:56.355Z,98630.56
2023-12-13T04:24:23.765Z,98631.09
2023-12-13T04:26:51.211Z,98629.41
2023-12-13T04:29:18.672Z,98625.34
2023-12-13T04:31:46.107Z,98631.41
2023-12-13T04:34:13.656Z,98628.91
2023-12-13T04:36:41.155Z,98625.84
2023-12-13T04:39:09.909Z,98629.78
2023-12-13T04:41:39.637Z,98622.78
2023-12-13T04:44:08.876Z,98614.88
2023-12-13T04:46:36.946Z,98619.91
2023-12-13T04:49:04.600Z,98621.16
2023-12-13T04:51:32.047Z,98616.19
2023-12-13T04:53:59.852Z,98623.28
2023-12-13T04:56:28.723Z,98619.56
2023-12-13T04:58:56.195Z,98614.16
2023-12-13T05:01:23.697Z,98620.88
2023-12-13T05:03:51.245Z,98619.50
2023-12-13T05:06:18.741Z,98616.50
2023-12-13T05:08:46.215Z,98607.88
2023-12-13T05:11:13.652Z,98611.75
2023-12-13T05:13:42.544Z,98619.69
2023-12-13T05:16:10.594Z,98618.75
2023-12-13T05:18:38.065Z,98614.66
2023-12-13T05:21:06.139Z,98615.63
2023-12-13T05:23:33.553Z,98615.53
2023-12-13T05:26:00.986Z,98623.56
2023-12-13T05:28:29.509Z,98624.81
2023-12-13T05:30:58.467Z,98615.31
2023-12-13T05:33:25.997Z,98619.88
2023-12-13T05:35:53.478Z,98615.91
2023-12-13T05:38:21.323Z,98606.03
2023-12-13T05:40:48.814Z,98615.81
2023-12-13T05:43:16.289Z,98612.63
2023-12-13T05:45:43.740Z,98618.31
2023-12-13T05:48:14.070Z,98612.97
2023-12-13T05:50:41.547Z,98612.31
2023-12-13T05:53:09.010Z,98615.81
2023-12-13T05:55:36.458Z,98619.91
2023-12-13T05:58:03.949Z,98625.44
2023-12-13T06:00:31.873Z,98634.25
2023-12-13T06:03:00.311Z,98625.44
2023-12-13T06:05:29.205Z,98630.38
2023-12-13T06:07:57.461Z,98619.63
2023-12-13T06:10:24.979Z,98623.56
2023-12-13T06:12:53.926Z,98626.84
2023-12-13T06:15:22.561Z,98620.16
2023-12-13T06:17:50.109Z,98633.66
2023-12-13T06:20:17.862Z,98633.75
2023-12-13T06:22:46.735Z,98634.09
2023-12-13T06:25:14.381Z,98631.31
2023-12-13T06:27:41.857Z,98634.47
2023-12-13T06:30:13.310Z,98636.22
2023-12-13T06:32:40.844Z,98639.44
2023-12-13T06:35:08.903Z,98628.09
2023-12-13T06:37:36.682Z,98635.91
2023-12-13T06:40:06.855Z,98632.19
2023-12-13T06:42:34.448Z,98639.63
2023-12-13T06:45:02.049Z,98644.56
2023-12-13T06:47:30.794Z,98639.31
2023-12-13T06:49:58.468Z,98645.28
2023-12-13T06:52:26.226Z,98647.69
2023-12-13T06:54:58.272Z,98651.81
2023-12-13T06:57:26.987Z,98640.47
2023-12-13T06:59:54.399Z,98641.31
2023-12-13T07:02:21.914Z,98647.56
2023-12-13T07:04:49.385Z,98646.09
2023-12-13T07:07:17.086Z,98648.34
2023-12-13T07:09:45.537Z,98644.97
2023-12-13T07:12:13.402Z,98655.38
2023-12-13T07:14:42.150Z,98652.31
2023-12-13T07:17:09.923Z,98642.84
2023-12-13T07:19:37.584Z,98644.41
2023-12-13T07:22:05.463Z,98641.41
2023-12-13T07:24:32.876Z,98648.88
2023-12-13T07:27:00.317Z,98651.13
2023-12-13T07:29:27.757Z,98652.81
2023-12-13T07:31:56.641Z,98650.03
2023-12-13T07:34:24.853Z,98651.94
2023-12-13T07:36:54.600Z,98642.59
2023-12-13T07:39:22.115Z,98642.28
2023-12-13T07:41:49.526Z,98648.34
2023-12-13T07:44:17.975Z,98647.47
2023-12-13T07:46:45.474Z,98644.88
2023-12-13T07:49:14.390Z,98638.47
2023-12-13T07:51:41.873Z,98647.25
2023-12-13T07:54:10.381Z,98641.38
2023-12-13T07:56:37.857Z,98653.53
2023-12-13T07:59:05.393Z,98651.84
2023-12-13T08:01:33.300Z,98643.53
2023-12-13T08:04:00.804Z,98651.94
2023-12-13T08:06:30.251Z,98654.59
2023-12-13T08:08:57.695Z,98649.03
2023-12-13T08:11:25.166Z,98659.09
2023-12-13T08:13:53.392Z,98652.59
2023-12-13T08:16:20.926Z,98653.09
2023-12-13T08:18:49.317Z,98646.75
2023-12-13T08:21:16.795Z,98641.31
2023-12-13T08:23:46.301Z,98644.38
2023-12-13T08:26:14.376Z,98650.91
2023-12-13T08:28:42.283Z,98655.41
2023-12-13T08:31:17.570Z,98659.19
2023-12-13T08:33:51.703Z,98659.41
2023-12-13T08:36:19.372Z,98652.19
2023-12-13T08:38:48.135Z,98653.63
2023-12-13T08:41:17.174Z,98656.34
2023-12-13T08:43:44.976Z,98657.09
2023-12-13T08:46:13.236Z,98660.00
2023-12-13T08:48:40.791Z,98654.09
2023-12-13T08:51:08.301Z,98655.72
2023-12-13T08:53:36.265Z,98651.47
2023-12-13T08:56:06.208Z,98654.97
2023-12-13T08:58:33.848Z,98653.84
2023-12-13T09:01:03.032Z,98660.91
2023-12-13T09:03:31.286Z,98652.84
2023-12-13T09:05:58.713Z,98657.72
2023-12-13T09:08:27.265Z,98656.53
2023-12-13T09:10:54.726Z,98645.56
2023-12-13T09:13:23.513Z,98653.59
2023-12-13T09:15:50.937Z,98659.00
2023-12-13T09:18:18.727Z,98647.53
2023-12-13T09:20:47.001Z,98637.97
2023-12-13T09:23:22.141Z,98648.72
2023-12-13T09:25:49.839Z,98650.81
2023-12-13T09:28:17.435Z,98647.06
2023-12-13T09:30:46.621Z,98649.34
2023-12-13T09:33:14.987Z,98651.03
2023-12-13T09:35:44.911Z,98658.69
2023-12-13T09:38:12.427Z,98652.72
2023-12-13T09:40:40.008Z,98656.03
2023-12-13T09:43:08.232Z,98655.16
2023-12-13T09:45:38.020Z,98650.78
2023-12-13T09:48:09.100Z,98665.44
2023-12-13T09:50:38.366Z,98669.25
2023-12-13T09:53:06.960Z,98668.03
2023-12-13T09:55:37.668Z,98663.97
2023-12-13T09:58:05.321Z,98670.31
2023-12-13T10:00:33.221Z,98660.63
2023-12-13T10:03:00.677Z,98656.41
2023-12-13T10:05:30.453Z,98668.16
2023-12-13T10:08:03.453Z,98658.97
2023-12-13T10:10:32.336Z,98663.19
2023-12-13T10:13:01.325Z,98652.91
2023-12-13T10:15:31.616Z,98654.72
2023-12-13T10:18:00.327Z,98652.16
2023-12-13T10:20:31.225Z,98654.69
2023-12-13T10:22:58.976Z,98653.25
2023-12-13T10:25:26.481Z,98650.38
2023-12-13T10:27:55.247Z,98643.38
2023-12-13T10:30:23.836Z,98655.72
2023-12-13T10:32:51.697Z,98643.03
2023-12-13T10:35:20.704Z,98643.69
2023-12-13T10:37:51.416Z,98645.38
2023-12-13T10:40:21.570Z,98636.81
2023-12-13T10:42:53.750Z,98646.34
2023-12-13T10:45:22.740Z,98641.50
2023-12-13T10:47:52.319Z,98647.06
2023-12-13T10:50:23.368Z,98648.09
2023-12-13T10:52:53.593Z,98639.72
2023-12-13T10:55:21.470Z,98643.38
2023-12-13T10:57:49.757Z,98640.75
2023-12-13T11:00:18.805Z,98640.53
2023-12-13T11:02:53.004Z,98639.75
2023-12-13T11:05:21.242Z,98639.75
2023-12-13T11:07:48.992Z,98645.38
2023-12-13T11:10:17.863Z,98631.84
2023-12-13T11:12:50.650Z,98641.53
2023-12-13T11:15:18.950Z,98640.09
2023-12-13T11:17:49.611Z,98640.44
2023-12-13T11:20:18.763Z,98629.56
2023-12-13T11:22:48.994Z,98639.19
2023-12-13T11:25:18.892Z,98632.50
2023-12-13T11:27:53.096Z,98630.97
2023-12-13T11:30:23.441Z,98639.41
2023-12-13T11:32:52.895Z,98643.25
2023-12-13T11:35:22.256Z,98633.31
2023-12-13T11:37:50.491Z,98637.28
2023-12-13T11:40:19.751Z,98634.28
2023-12-13T11:42:47.518Z,98629.50
2023-12-13T11:45:15.065Z,98624.97
2023-12-13T11:47:48.021Z,98630.91
2023-12-13T11:50:17.671Z,98632.63
2023-12-13T11:52:46.267Z,98629.38
2023-12-13T11:55:17.635Z,98624.59
2023-12-13T11:57:48.374Z,98626.84
2023-12-13T12:00:19.473Z,98621.69
2023-12-13T12:02:47.253Z,98630.66
2023-12-13T12:05:15.029Z,98619.56
2023-12-13T12:07:42.754Z,98626.66
2023-12-13T12:10:11.929Z,98622.66
2023-12-13T12:12:39.577Z,98618.41
2023-12-13T12:15:12.223Z,98618.75
2023-12-13T12:17:40.028Z,98629.91
2023-12-13T12:20:08.802Z,98623.78
2023-12-13T12:22:38.118Z,98628.72
2023-12-13T12:25:06.663Z,98622.00
2023-12-13T12:27:36.902Z,98627.50
2023-12-13T12:30:05.050Z,98621.59
2023-12-13T12:32:33.853Z,98619.63
2023-12-13T12:35:03.763Z,98623.09
2023-12-13T12:37:31.639Z,98631.41
2023-12-13T12:39:59.312Z,98628.56
2023-12-13T12:42:27.871Z,98628.75
2023-12-13T12:44:55.293Z,98627.59
2023-12-13T12:47:23.320Z,98630.38
2023-12-13T12:49:56.033Z,98620.25
2023-12-13T12:52:27.235Z,98623.69
2023-12-13T12:54:55.786Z,98615.50
2023-12-13T12:57:30.916Z,98623.53
2023-12-13T12:59:58.773Z,98623.47
2023-12-13T13:02:29.312Z,98619.56
2023-12-13T13:04:58.777Z,98626.41
2023-12-13T13:07:26.845Z,98625.47
2023-12-13T13:09:56.573Z,98623.00
2023-12-13T13:12:29.510Z,98616.19
2023-12-13T13:14:57.896Z,98626.41
2023-12-13T13:17:26.111Z,98626.25
2023-12-13T13:19:53.650Z,98637.50
2023-12-13T13:22:25.615Z,98629.97
2023-12-13T13:24:53.344Z,98634.97
2023-12-13T13:27:27.987Z,98634.84
2023-12-13T13:29:56.528Z,98642.06
2023-12-13T13:32:24.155Z,98632.16
2023-12-13T13:34:51.650Z,98640.88
2023-12-13T13:37:19.217Z,98642.56
2023-12-13T13:39:49.226Z,98641.63
2023-12-13T13:42:17.715Z,98646.88
2023-12-13T13:44:45.399Z,98649.13
2023-12-13T13:47:14.663Z,98639.94
2023-12-13T13:49:42.336Z,98646.81
2023-12-13T13:52:10.420Z,98644.03
2023-12-13T13:54:37.861Z,98644.47
2023-12-13T13:57:07.124Z,98648.81
2023-12-13T13:59:34.714Z,98653.00
2023-12-13T14:02:02.226Z,98661.75
2023-12-13T14:04:29.812Z,98650.72
2023-12-13T14:06:57.462Z,98652.22
2023-12-13T14:09:24.948Z,98657.94
2023-12-13T14:11:53.434Z,98662.31
2023-12-13T14:14:23.285Z,98657.97
2023-12-13T14:16:50.823Z,98662.63
2023-12-13T14:19:18.444Z,98661.41
2023-12-13T14:21:46.231Z,98666.91
2023-12-13T14:24:13.648Z,98663.66
2023-12-13T14:26:41.077Z,98677.75
2023-12-13T14:29:08.527Z,98692.25
2023-12-13T14:31:37.957Z,98683.06
2023-12-13T14:34:05.517Z,98680.88
2023-12-13T14:36:33.162Z,98695.38
2023-12-13T14:39:00.657Z,98698.72
2023-12-13T14:41:29.587Z,98697.13
2023-12-13T14:43:57.168Z,98700.38
2023-12-13T14:46:24.816Z,98693.16
2023-12-13T14:48:54.271Z,98704.16
2023-12-13T14:51:22.699Z,98709.34
2023-12-13T14:53:51.524Z,98702.94
2023-12-13T14:56:20.156Z,98693.75
2023-12-13T14:58:47.558Z,98698.03
2023-12-13T15:01:16.247Z,98704.59
2023-12-13T15:03:43.741Z,98709.50
2023-12-13T15:06:12.664Z,98706.19
2023-12-13T15:08:40.674Z,98707.78
2023-12-13T15:11:08.357Z,98711.38
2023-12-13T15:13:36.493Z,98708.47
2023-12-13T15:16:05.819Z,98721.59
2023-12-13T15:18:34.170Z,98712.78
2023-12-13T15:21:01.699Z,98717.53
2023-12-13T15:23:30.676Z,98722.84
2023-12-13T15:25:58.253Z,98730.38
2023-12-13T15:28:25.928Z,98737.00
2023-12-13T15:30:53.448Z,98737.38
2023-12-13T15:33:21.297Z,98743.09
2023-12-13T15:35:48.785Z,98744.78
2023-12-13T15:38:16.319Z,98739.50
2023-12-13T15:40:46.200Z,98749.47
2023-12-13T15:43:13.626Z,98743.41
2023-12-13T15:45:42.774Z,98750.81
2023-12-13T15:48:11.280Z,98746.25
2023-12-13T15:50:39.147Z,98742.38
2023-12-13T15:53:08.614Z,98746.84
2023-12-13T15:55:36.141Z,98749.78
2023-12-13T15:58:05.031Z,98750.41
2023-12-13T16:00:32.433Z,98739.69
2023-12-13T16:03:00.900Z,98740.63
2023-12-13T16:05:28.656Z,98740.63
2023-12-13T16:07:56.312Z,98747.88
2023-12-13T16:10:23.888Z,98741.72
2023-12-13T16:12:51.520Z,98747.41
2023-12-13T16:15:21.173Z,98747.53
2023-12-13T16:17:49.346Z,98758.56
2023-12-13T16:20:17.076Z,98753.91
2023-12-13T16:22:44.685Z,98748.31
2023-12-13T16:25:12.171Z,98751.25
2023-12-13T16:27:40.138Z,98756.00
2023-12-13T16:30:08.804Z,98752.47
2023-12-13T16:32:38.092Z,98756.19
2023-12-13T16:35:06.540Z,98759.63
2023-12-13T16:37:37.098Z,98755.16
2023-12-13T16:40:05.611Z,98770.13
2023-12-13T16:42:33.222Z,98765.50
2023-12-13T16:45:00.774Z,98759.47
2023-12-13T16:47:28.261Z,98761.09
2023-12-13T16:49:57.887Z,98766.84
2023-12-13T16:52:25.370Z,98766.47
2023-12-13T16:54:52.800Z,98771.19
2023-12-13T16:57:21.785Z,98772.69
2023-12-13T16:59:49.220Z,98778.59
2023-12-13T17:02:16.752Z,98771.66
2023-12-13T17:05:06.342Z,98782.44
2023-12-13T17:07:34.660Z,98765.19
2023-12-13T17:10:02.391Z,98761.09
2023-12-13T17:12:29.860Z,98768.66
2023-12-13T17:15:03.442Z,98779.59
2023-12-13T17:17:32.094Z,98782.22
2023-12-13T17:19:59.656Z,98789.53
2023-12-13T17:22:31.983Z,98784.50
2023-12-13T17:25:00.072Z,98794.78
2023-12-13T17:27:28.403Z,98794.56
2023-12-13T17:29:55.854Z,98801.00
2023-12-13T17:32:23.597Z,98800.13
2023-12-13T17:34:51.105Z,98807.69
2023-12-13T17:37:19.967Z,98801.63
2023-12-13T17:39:48.917Z,98801.19
2023-12-13T17:42:16.439Z,98809.44
2023-12-13T17:44:43.923Z,98804.53
2023-12-13T17:47:11.533Z,98806.13
2023-12-13T17:49:40.211Z,98801.31
2023-12-13T17:52:08.599Z,98803.59
2023-12-13T17:54:36.122Z,98803.56
2023-12-13T17:57:06.264Z,98805.16
2023-12-13T17:59:34.059Z,98808.91
2023-12-13T18:02:02.130Z,98811.44
2023-12-13T18:04:34.463Z,98816.72
2023-12-13T18:07:02.141Z,98824.25
2023-12-13T18:09:30.246Z,98822.81
2023-12-13T18:11:57.791Z,98825.75
2023-12-13T18:14:26.530Z,98825.78
2023-12-13T18:16:54.224Z,98824.75
2023-12-13T18:19:21.718Z,98824.75
2023-12-13T18:21:52.892Z,98825.84
2023-12-13T18:24:21.438Z,98833.94
2023-12-13T18:26:49.256Z,98844.38
2023-12-13T18:29:16.707Z,98849.88
2023-12-13T18:31:47.002Z,98861.47
2023-12-13T18:34:14.599Z,98853.03
2023-12-13T18:36:42.020Z,98863.81
2023-12-13T18:39:10.496Z,98863.94
2023-12-13T18:41:37.973Z,98871.47
2023-12-13T18:44:05.599Z,98862.13
2023-12-13T18:46:33.081Z,98859.34
2023-12-13T18:49:01.908Z,98859.91
2023-12-13T18:51:29.335Z,98863.94
2023-12-13T18:53:57.172Z,98865.81
2023-12-13T18:56:24.641Z,98864.09
2023-12-13T18:58:52.105Z,98875.25
2023-12-13T19:01:19.608Z,98873.97
2023-12-13T19:03:47.066Z,98876.47
2023-12-13T19:06:15.849Z,98882.25
2023-12-13T19:08:43.272Z,98869.09
2023-12-13T19:11:12.445Z,98876.38
2023-12-13T19:13:40.025Z,98874.69
2023-12-13T19:16:08.309Z,98878.75
2023-12-13T19:18:36.200Z,98894.28
2023-12-13T19:21:03.911Z,98891.34
2023-12-13T19:23:32.666Z,98886.94
2023-12-13T19:26:00.145Z,98895.16
2023-12-13T19:28:27.629Z,98902.03
2023-12-13T19:30:56.134Z,98903.84
2023-12-13T19:33:23.808Z,98905.38
2023-12-13T19:35:51.240Z,98897.00
2023-12-13T19:38:18.947Z,98900.06
2023-12-13T19:40:47.745Z,98902.75
2023-12-13T19:43:15.189Z,98912.81
2023-12-13T19:45:42.800Z,98901.69
2023-12-13T19:48:10.354Z,98909.38
2023-12-13T19:50:38.070Z,98922.69
2023-12-13T19:53:05.628Z,98921.88
2023-12-13T19:55:33.118Z,98913.16
2023-12-13T19:58:01.903Z,98920.63
2023-12-13T20:00:30.085Z,98933.19
2023-12-13T20:02:58.239Z,98928.13
2023-12-13T20:05:25.778Z,98926.34
2023-12-13T20:07:53.366Z,98928.34
2023-12-13T20:10:20.798Z,98944.91
2023-12-13T20:12:48.269Z,98949.44
2023-12-13T20:15:20.113Z,98963.41
2023-12-13T20:17:47.616Z,98969.53
2023-12-13T20:20:15.396Z,98972.66
2023-12-13T20:22:42.976Z,98968.66
2023-12-13T20:25:11.021Z,98967.31
2023-12-13T20:27:40.114Z,98965.34
2023-12-13T20:30:09.121Z,98963.72
2023-12-13T20:32:39.569Z,98969.75
2023-12-13T20:35:08.573Z,98970.44
2023-12-13T20:37:37.645Z,98969.81
2023-12-13T20:40:07.547Z,98976.63
2023-12-13T20:42:36.957Z,98968.22
2023-12-13T20:45:06.077Z,98970.09
2023-12-13T20:47:35.834Z,98969.63
2023-12-13T20:50:05.466Z,98976.72
2023-12-13T20:52:32.990Z,98972.34
2023-12-13T20:55:00.408Z,98967.28
2023-12-13T20:57:28.097Z,98978.34
2023-12-13T20:59:56.064Z,98977.78
2023-12-13T21:02:24.050Z,98991.34
2023-12-13T21:04:51.582Z,98997.00
2023-12-13T21:07:21.069Z,99000.13
2023-12-13T21:09:48.484Z,99001.19
2023-12-13T21:12:17.091Z,99001.66
2023-12-13T21:14:44.647Z,98999.88
2023-12-13T21:17:12.088Z,99001.94
2023-12-13T21:19:39.580Z,98998.78
2023-12-13T21:22:07.147Z,99002.94
2023-12-13T21:24:37.536Z,99006.53
2023-12-13T21:27:05.328Z,99014.06
2023-12-13T21:29:32.841Z,99023.09
2023-12-13T21:32:00.442Z,99017.81
2023-12-13T21:34:28.054Z,99023.97
2023-12-13T21:36:55.511Z,99018.44
2023-12-13T21:39:24.124Z,99025.63
2023-12-13T21:41:52.859Z,99023.81
2023-12-13T21:44:20.256Z,99023.09
2023-12-13T21:46:49.060Z,99026.38
2023-12-13T21:49:16.532Z,99023.09
2023-12-13T21:51:44.147Z,99027.38
2023-12-13T21:54:11.544Z,99028.81
2023-12-13T21:56:39.088Z,99030.94
2023-12-13T21:59:07.992Z,99044.47
2023-12-13T22:01:35.829Z,99044.59
2023-12-13T22:04:04.466Z,99051.81
2023-12-13T22:06:31.961Z,99058.94
2023-12-13T22:08:59.373Z,99060.31
2023-12-13T22:11:27.163Z,99057.41
2023-12-13T22:13:54.693Z,99066.97
2023-12-13T22:16:23.510Z,99074.84
2023-12-13T22:19:00.456Z,99076.75
2023-12-13T22:21:28.174Z,99063.69
2023-12-13T22:23:55.868Z,99080.44
2023-12-13T22:26:23.340Z,99071.28
2023-12-13T22:28:50.803Z,99071.28
2023-12-13T22:31:18.279Z,99077.47
2023-12-13T22:33:47.096Z,99071.91
2023-12-13T22:36:14.680Z,99071.72
2023-12-13T22:38:42.100Z,99066.84
2023-12-13T22:41:09.525Z,99068.59
2023-12-13T22:43:36.967Z,99071.78
2023-12-13T22:46:04.989Z,99067.50
2023-12-13T22:48:32.388Z,99082.41
2023-12-13T22:51:01.128Z,99083.94
2023-12-13T22:53:28.523Z,99081.22
2023-12-13T22:55:55.989Z,99081.16
2023-12-13T22:58:23.651Z,99093.19
2023-12-13T23:00:51.103Z,99090.44
2023-12-13T23:03:18.548Z,99093.75
2023-12-13T23:05:46.016Z,99102.00
2023-12-13T23:08:14.819Z,99098.94
2023-12-13T23:10:42.400Z,99102.75
2023-12-13T23:13:09.873Z,99102.38
2023-12-13T23:15:37.323Z,99105.72
2023-12-13T23:18:05.003Z,99103.91
2023-12-13T23:20:32.634Z,99103.56
2023-12-13T23:23:00.744Z,99108.50
2023-12-13T23:25:29.579Z,99118.31
2023-12-13T23:27:57.408Z,99114.72
2023-12-13T23:30:24.858Z,99117.41
2023-12-13T23:32:52.291Z,99123.88
2023-12-13T23:35:20.304Z,99123.97
2023-12-13T23:37:47.798Z,99122.47
2023-12-13T23:40:15.281Z,99125.75
2023-12-13T23:42:44.039Z,99130.34
2023-12-13T23:45:11.934Z,99132.31
2023-12-13T23:47:39.328Z,99132.41
2023-12-13T23:50:07.845Z,99144.84
2023-12-13T23:52:35.728Z,99143.56
2023-12-13T23:55:03.325Z,99152.47
2023-12-13T23:57:30.754Z,99146.75
2023-12-13T23:59:59.521Z,99150.25
